sensor_id;sensor_type;location;lat;lon;timestamp;P1;durP1;ratioP1;P2;durP2;ratioP2
5519;SDS011;2782;52.362;10.012;2023-03-14T00:00:16;6.40;;;2.30;;
5519;SDS011;2782;52.362;10.012;2023-03-14T00:01:18;4.90;;;2.13;;
5519;SDS011;2782;52.362;10.012;2023-03-14T00:02:20;6.68;;;2.78;;
5519;SDS011;2782;52.362;10.012;2023-03-14T00:03:22;7.57;;;2.33;;
5519;SDS011;2782;52.362;10.012;2023-03-14T00:04:24;3.37;;;1.80;;
5519;SDS011;2782;52.362;10.012;2023-03-14T00:05:25;3.92;;;1.92;;
5519;SDS011;2782;52.362;10.012;2023-03-14T00:06:26;6.03;;;2.50;;
5519;SDS011;2782;52.362;10.012;2023-03-14T00:07:28;3.50;;;2.10;;
5519;SDS011;2782;52.362;10.012;2023-03-14T00:08:31;7.57;;;3.05;;
5519;SDS011;2782;52.362;10.012;2023-03-14T00:09:33;4.13;;;2.35;;
5519;SDS011;2782;52.362;10.012;2023-03-14T00:10:35;6.37;;;2.50;;
5519;SDS011;2782;52.362;10.012;2023-03-14T00:11:37;5.57;;;2.60;;
5519;SDS011;2782;52.362;10.012;2023-03-14T00:12:37;4.73;;;1.90;;
5519;SDS011;2782;52.362;10.012;2023-03-14T00:13:39;6.93;;;2.55;;
5519;SDS011;2782;52.362;10.012;2023-03-14T00:14:40;5.30;;;2.70;;
5519;SDS011;2782;52.362;10.012;2023-03-14T00:15:42;6.28;;;2.78;;
5519;SDS011;2782;52.362;10.012;2023-03-14T00:16:45;6.37;;;3.00;;
5519;SDS011;2782;52.362;10.012;2023-03-14T00:17:46;11.55;;;2.60;;
5519;SDS011;2782;52.362;10.012;2023-03-14T00:18:47;7.73;;;2.90;;
5519;SDS011;2782;52.362;10.012;2023-03-14T00:19:50;9.38;;;2.70;;
5519;SDS011;2782;52.362;10.012;2023-03-14T00:20:53;5.13;;;2.65;;
5519;SDS011;2782;52.362;10.012;2023-03-14T00:21:57;10.60;;;2.75;;
5519;SDS011;2782;52.362;10.012;2023-03-14T00:22:58;10.40;;;3.37;;
5519;SDS011;2782;52.362;10.012;2023-03-14T00:24:00;7.43;;;3.20;;
5519;SDS011;2782;52.362;10.012;2023-03-14T00:25:00;9.20;;;3.80;;
5519;SDS011;2782;52.362;10.012;2023-03-14T00:26:03;7.80;;;3.25;;
5519;SDS011;2782;52.362;10.012;2023-03-14T00:27:05;6.03;;;2.90;;
5519;SDS011;2782;52.362;10.012;2023-03-14T00:28:06;6.90;;;2.67;;
5519;SDS011;2782;52.362;10.012;2023-03-14T00:29:07;7.67;;;3.03;;
5519;SDS011;2782;52.362;10.012;2023-03-14T00:30:09;6.18;;;2.60;;
5519;SDS011;2782;52.362;10.012;2023-03-14T00:31:11;6.78;;;2.65;;
5519;SDS011;2782;52.362;10.012;2023-03-14T00:32:14;6.80;;;2.67;;
5519;SDS011;2782;52.362;10.012;2023-03-14T00:33:15;6.73;;;3.30;;
5519;SDS011;2782;52.362;10.012;2023-03-14T00:34:16;10.63;;;3.38;;
5519;SDS011;2782;52.362;10.012;2023-03-14T00:35:18;5.60;;;2.63;;
5519;SDS011;2782;52.362;10.012;2023-03-14T00:36:20;9.38;;;2.78;;
5519;SDS011;2782;52.362;10.012;2023-03-14T00:37:21;3.90;;;2.10;;
5519;SDS011;2782;52.362;10.012;2023-03-14T00:38:23;6.80;;;2.78;;
5519;SDS011;2782;52.362;10.012;2023-03-14T00:39:24;5.78;;;2.42;;
5519;SDS011;2782;52.362;10.012;2023-03-14T00:40:25;6.00;;;2.78;;
5519;SDS011;2782;52.362;10.012;2023-03-14T00:41:26;6.87;;;3.27;;
5519;SDS011;2782;52.362;10.012;2023-03-14T00:42:27;4.68;;;2.70;;
5519;SDS011;2782;52.362;10.012;2023-03-14T00:43:28;7.83;;;3.10;;
5519;SDS011;2782;52.362;10.012;2023-03-14T00:44:30;5.68;;;2.53;;
5519;SDS011;2782;52.362;10.012;2023-03-14T00:45:31;7.25;;;3.03;;
5519;SDS011;2782;52.362;10.012;2023-03-14T00:46:33;8.30;;;2.75;;
5519;SDS011;2782;52.362;10.012;2023-03-14T00:47:34;3.80;;;2.77;;
5519;SDS011;2782;52.362;10.012;2023-03-14T00:48:35;5.63;;;2.72;;
5519;SDS011;2782;52.362;10.012;2023-03-14T00:49:36;5.50;;;2.50;;
5519;SDS011;2782;52.362;10.012;2023-03-14T00:50:40;8.95;;;3.88;;
5519;SDS011;2782;52.362;10.012;2023-03-14T00:51:41;10.73;;;2.92;;
5519;SDS011;2782;52.362;10.012;2023-03-14T00:52:42;5.57;;;2.67;;
5519;SDS011;2782;52.362;10.012;2023-03-14T00:53:43;6.23;;;2.63;;
5519;SDS011;2782;52.362;10.012;2023-03-14T00:54:45;8.05;;;2.70;;
5519;SDS011;2782;52.362;10.012;2023-03-14T00:55:46;6.43;;;2.50;;
5519;SDS011;2782;52.362;10.012;2023-03-14T00:56:47;9.85;;;3.00;;
5519;SDS011;2782;52.362;10.012;2023-03-14T00:57:48;6.70;;;3.37;;
5519;SDS011;2782;52.362;10.012;2023-03-14T00:58:52;6.22;;;2.63;;
5519;SDS011;2782;52.362;10.012;2023-03-14T00:59:54;7.05;;;2.83;;
5519;SDS011;2782;52.362;10.012;2023-03-14T01:00:55;6.18;;;2.65;;
5519;SDS011;2782;52.362;10.012;2023-03-14T01:01:56;7.53;;;2.50;;
5519;SDS011;2782;52.362;10.012;2023-03-14T01:02:58;6.25;;;2.50;;
5519;SDS011;2782;52.362;10.012;2023-03-14T01:03:58;6.70;;;2.97;;
5519;SDS011;2782;52.362;10.012;2023-03-14T01:05:00;5.40;;;2.95;;
5519;SDS011;2782;52.362;10.012;2023-03-14T01:06:12;7.00;;;2.67;;
5519;SDS011;2782;52.362;10.012;2023-03-14T01:07:15;8.93;;;2.75;;
5519;SDS011;2782;52.362;10.012;2023-03-14T01:08:16;9.90;;;2.88;;
5519;SDS011;2782;52.362;10.012;2023-03-14T01:09:17;6.25;;;2.97;;
5519;SDS011;2782;52.362;10.012;2023-03-14T01:10:18;5.57;;;2.63;;
5519;SDS011;2782;52.362;10.012;2023-03-14T01:11:21;8.60;;;3.00;;
5519;SDS011;2782;52.362;10.012;2023-03-14T01:12:22;7.60;;;2.67;;
5519;SDS011;2782;52.362;10.012;2023-03-14T01:13:24;5.93;;;2.40;;
5519;SDS011;2782;52.362;10.012;2023-03-14T01:14:24;7.00;;;3.00;;
5519;SDS011;2782;52.362;10.012;2023-03-14T01:15:26;5.80;;;3.25;;
5519;SDS011;2782;52.362;10.012;2023-03-14T01:16:28;5.73;;;2.40;;
5519;SDS011;2782;52.362;10.012;2023-03-14T01:17:31;7.32;;;3.08;;
5519;SDS011;2782;52.362;10.012;2023-03-14T01:18:32;5.50;;;2.80;;
5519;SDS011;2782;52.362;10.012;2023-03-14T01:19:34;5.00;;;2.40;;
5519;SDS011;2782;52.362;10.012;2023-03-14T01:20:36;5.30;;;2.80;;
5519;SDS011;2782;52.362;10.012;2023-03-14T01:21:39;4.65;;;2.22;;
5519;SDS011;2782;52.362;10.012;2023-03-14T01:22:40;4.60;;;2.33;;
5519;SDS011;2782;52.362;10.012;2023-03-14T01:23:43;4.97;;;2.65;;
5519;SDS011;2782;52.362;10.012;2023-03-14T01:24:45;5.18;;;2.63;;
5519;SDS011;2782;52.362;10.012;2023-03-14T01:25:46;7.63;;;3.20;;
5519;SDS011;2782;52.362;10.012;2023-03-14T01:26:47;9.77;;;2.70;;
5519;SDS011;2782;52.362;10.012;2023-03-14T01:27:49;4.38;;;2.50;;
5519;SDS011;2782;52.362;10.012;2023-03-14T01:28:50;6.47;;;2.90;;
5519;SDS011;2782;52.362;10.012;2023-03-14T01:29:54;7.53;;;2.55;;
5519;SDS011;2782;52.362;10.012;2023-03-14T01:30:54;4.13;;;2.20;;
5519;SDS011;2782;52.362;10.012;2023-03-14T01:31:56;8.32;;;3.38;;
5519;SDS011;2782;52.362;10.012;2023-03-14T01:32:56;5.90;;;2.23;;
5519;SDS011;2782;52.362;10.012;2023-03-14T01:33:58;4.72;;;2.20;;
5519;SDS011;2782;52.362;10.012;2023-03-14T01:34:59;8.37;;;3.20;;
5519;SDS011;2782;52.362;10.012;2023-03-14T01:36:00;7.43;;;2.70;;
5519;SDS011;2782;52.362;10.012;2023-03-14T01:37:03;5.15;;;2.38;;
5519;SDS011;2782;52.362;10.012;2023-03-14T01:38:05;8.45;;;2.70;;
5519;SDS011;2782;52.362;10.012;2023-03-14T01:39:06;3.40;;;2.30;;
5519;SDS011;2782;52.362;10.012;2023-03-14T01:40:10;6.35;;;2.75;;
5519;SDS011;2782;52.362;10.012;2023-03-14T01:41:12;4.53;;;2.35;;
5519;SDS011;2782;52.362;10.012;2023-03-14T01:42:15;7.65;;;2.90;;
5519;SDS011;2782;52.362;10.012;2023-03-14T01:43:16;4.00;;;2.20;;
5519;SDS011;2782;52.362;10.012;2023-03-14T01:44:19;5.57;;;2.58;;
5519;SDS011;2782;52.362;10.012;2023-03-14T01:46:59;7.22;;;2.58;;
5519;SDS011;2782;52.362;10.012;2023-03-14T01:48:01;10.63;;;2.95;;
5519;SDS011;2782;52.362;10.012;2023-03-14T01:49:04;9.10;;;2.80;;
5519;SDS011;2782;52.362;10.012;2023-03-14T01:50:18;7.90;;;3.10;;
5519;SDS011;2782;52.362;10.012;2023-03-14T01:51:20;8.60;;;2.53;;
5519;SDS011;2782;52.362;10.012;2023-03-14T01:52:26;9.73;;;3.35;;
5519;SDS011;2782;52.362;10.012;2023-03-14T01:53:35;12.77;;;3.75;;
5519;SDS011;2782;52.362;10.012;2023-03-14T01:54:37;8.90;;;3.30;;
5519;SDS011;2782;52.362;10.012;2023-03-14T01:55:41;7.28;;;2.92;;
5519;SDS011;2782;52.362;10.012;2023-03-14T01:56:42;8.70;;;3.10;;
5519;SDS011;2782;52.362;10.012;2023-03-14T01:57:47;11.40;;;3.65;;
5519;SDS011;2782;52.362;10.012;2023-03-14T01:58:51;10.45;;;3.15;;
5519;SDS011;2782;52.362;10.012;2023-03-14T01:59:54;6.90;;;3.10;;
5519;SDS011;2782;52.362;10.012;2023-03-14T02:01:00;6.72;;;2.80;;
5519;SDS011;2782;52.362;10.012;2023-03-14T02:02:02;10.25;;;3.08;;
5519;SDS011;2782;52.362;10.012;2023-03-14T02:03:09;9.07;;;2.88;;
5519;SDS011;2782;52.362;10.012;2023-03-14T02:04:11;9.38;;;3.20;;
5519;SDS011;2782;52.362;10.012;2023-03-14T02:05:14;9.10;;;3.03;;
5519;SDS011;2782;52.362;10.012;2023-03-14T02:06:17;7.82;;;3.25;;
5519;SDS011;2782;52.362;10.012;2023-03-14T02:07:24;8.40;;;2.85;;
5519;SDS011;2782;52.362;10.012;2023-03-14T02:08:32;6.15;;;3.00;;
5519;SDS011;2782;52.362;10.012;2023-03-14T02:09:36;9.20;;;2.95;;
5519;SDS011;2782;52.362;10.012;2023-03-14T02:10:41;8.70;;;3.03;;
5519;SDS011;2782;52.362;10.012;2023-03-14T02:11:43;8.38;;;2.35;;
5519;SDS011;2782;52.362;10.012;2023-03-14T02:12:46;7.72;;;2.95;;
5519;SDS011;2782;52.362;10.012;2023-03-14T02:13:47;7.00;;;2.60;;
5519;SDS011;2782;52.362;10.012;2023-03-14T02:14:50;7.22;;;2.67;;
5519;SDS011;2782;52.362;10.012;2023-03-14T02:15:52;7.43;;;3.05;;
5519;SDS011;2782;52.362;10.012;2023-03-14T02:16:52;10.75;;;2.80;;
5519;SDS011;2782;52.362;10.012;2023-03-14T02:17:54;5.85;;;2.70;;
5519;SDS011;2782;52.362;10.012;2023-03-14T02:18:56;5.57;;;2.28;;
5519;SDS011;2782;52.362;10.012;2023-03-14T02:20:03;6.90;;;2.70;;
5519;SDS011;2782;52.362;10.012;2023-03-14T02:21:12;5.28;;;2.70;;
5519;SDS011;2782;52.362;10.012;2023-03-14T02:22:17;10.13;;;3.05;;
5519;SDS011;2782;52.362;10.012;2023-03-14T02:23:20;7.27;;;3.07;;
5519;SDS011;2782;52.362;10.012;2023-03-14T02:24:32;7.20;;;2.00;;
5519;SDS011;2782;52.362;10.012;2023-03-14T02:25:39;7.93;;;2.60;;
5519;SDS011;2782;52.362;10.012;2023-03-14T02:27:02;8.82;;;2.55;;
5519;SDS011;2782;52.362;10.012;2023-03-14T02:28:05;5.63;;;2.10;;
5519;SDS011;2782;52.362;10.012;2023-03-14T02:29:06;5.28;;;1.77;;
5519;SDS011;2782;52.362;10.012;2023-03-14T02:30:08;7.87;;;2.43;;
5519;SDS011;2782;52.362;10.012;2023-03-14T02:31:13;5.18;;;2.08;;
5519;SDS011;2782;52.362;10.012;2023-03-14T02:32:14;9.63;;;2.45;;
5519;SDS011;2782;52.362;10.012;2023-03-14T02:33:18;8.40;;;2.78;;
5519;SDS011;2782;52.362;10.012;2023-03-14T02:34:21;7.53;;;2.40;;
5519;SDS011;2782;52.362;10.012;2023-03-14T02:35:23;7.78;;;2.28;;
5519;SDS011;2782;52.362;10.012;2023-03-14T02:36:27;3.90;;;1.90;;
5519;SDS011;2782;52.362;10.012;2023-03-14T02:37:30;6.97;;;2.50;;
5519;SDS011;2782;52.362;10.012;2023-03-14T02:38:37;6.68;;;2.10;;
5519;SDS011;2782;52.362;10.012;2023-03-14T02:39:47;7.35;;;2.60;;
5519;SDS011;2782;52.362;10.012;2023-03-14T02:40:49;5.63;;;2.33;;
5519;SDS011;2782;52.362;10.012;2023-03-14T02:41:51;5.97;;;2.20;;
5519;SDS011;2782;52.362;10.012;2023-03-14T02:42:53;4.40;;;2.20;;
5519;SDS011;2782;52.362;10.012;2023-03-14T02:43:55;5.00;;;2.22;;
5519;SDS011;2782;52.362;10.012;2023-03-14T02:46:29;3.85;;;1.95;;
5519;SDS011;2782;52.362;10.012;2023-03-14T02:47:32;4.25;;;2.25;;
5519;SDS011;2782;52.362;10.012;2023-03-14T02:48:33;7.37;;;1.87;;
5519;SDS011;2782;52.362;10.012;2023-03-14T02:49:39;4.10;;;2.28;;
5519;SDS011;2782;52.362;10.012;2023-03-14T02:50:40;3.37;;;1.63;;
5519;SDS011;2782;52.362;10.012;2023-03-14T02:51:43;4.97;;;2.53;;
5519;SDS011;2782;52.362;10.012;2023-03-14T02:52:46;5.32;;;1.88;;
5519;SDS011;2782;52.362;10.012;2023-03-14T02:53:47;3.90;;;1.85;;
5519;SDS011;2782;52.362;10.012;2023-03-14T02:54:49;4.85;;;2.25;;
5519;SDS011;2782;52.362;10.012;2023-03-14T02:55:49;4.87;;;1.70;;
5519;SDS011;2782;52.362;10.012;2023-03-14T02:56:51;3.67;;;1.75;;
5519;SDS011;2782;52.362;10.012;2023-03-14T02:57:53;4.47;;;1.93;;
5519;SDS011;2782;52.362;10.012;2023-03-14T02:58:55;3.90;;;1.70;;
5519;SDS011;2782;52.362;10.012;2023-03-14T02:59:58;4.68;;;1.88;;
5519;SDS011;2782;52.362;10.012;2023-03-14T03:00:59;4.07;;;1.75;;
5519;SDS011;2782;52.362;10.012;2023-03-14T03:05:08;5.15;;;1.95;;
5519;SDS011;2782;52.362;10.012;2023-03-14T03:06:09;4.63;;;1.45;;
5519;SDS011;2782;52.362;10.012;2023-03-14T03:07:10;5.60;;;1.97;;
5519;SDS011;2782;52.362;10.012;2023-03-14T03:08:12;4.63;;;1.67;;
5519;SDS011;2782;52.362;10.012;2023-03-14T03:09:12;3.10;;;1.53;;
5519;SDS011;2782;52.362;10.012;2023-03-14T03:10:14;5.88;;;1.95;;
5519;SDS011;2782;52.362;10.012;2023-03-14T03:11:15;4.90;;;1.77;;
5519;SDS011;2782;52.362;10.012;2023-03-14T03:12:16;3.40;;;1.38;;
5519;SDS011;2782;52.362;10.012;2023-03-14T03:13:18;3.93;;;1.70;;
5519;SDS011;2782;52.362;10.012;2023-03-14T03:14:20;6.75;;;2.10;;
5519;SDS011;2782;52.362;10.012;2023-03-14T03:15:21;1.83;;;1.30;;
5519;SDS011;2782;52.362;10.012;2023-03-14T03:16:23;4.40;;;1.60;;
5519;SDS011;2782;52.362;10.012;2023-03-14T03:17:23;4.97;;;1.77;;
5519;SDS011;2782;52.362;10.012;2023-03-14T03:18:25;2.80;;;1.38;;
5519;SDS011;2782;52.362;10.012;2023-03-14T03:19:26;5.20;;;2.10;;
5519;SDS011;2782;52.362;10.012;2023-03-14T03:20:27;5.30;;;1.55;;
5519;SDS011;2782;52.362;10.012;2023-03-14T03:21:28;3.33;;;1.47;;
5519;SDS011;2782;52.362;10.012;2023-03-14T03:22:30;4.38;;;1.83;;
5519;SDS011;2782;52.362;10.012;2023-03-14T03:23:30;3.57;;;1.67;;
5519;SDS011;2782;52.362;10.012;2023-03-14T03:24:32;4.32;;;1.77;;
5519;SDS011;2782;52.362;10.012;2023-03-14T03:25:33;3.90;;;1.30;;
5519;SDS011;2782;52.362;10.012;2023-03-14T03:26:34;4.85;;;1.60;;
5519;SDS011;2782;52.362;10.012;2023-03-14T03:27:35;4.07;;;1.90;;
5519;SDS011;2782;52.362;10.012;2023-03-14T03:28:39;2.03;;;1.20;;
5519;SDS011;2782;52.362;10.012;2023-03-14T03:29:40;5.90;;;2.05;;
5519;SDS011;2782;52.362;10.012;2023-03-14T03:30:41;3.63;;;1.25;;
5519;SDS011;2782;52.362;10.012;2023-03-14T03:31:42;4.45;;;1.40;;
5519;SDS011;2782;52.362;10.012;2023-03-14T03:32:45;3.30;;;1.30;;
5519;SDS011;2782;52.362;10.012;2023-03-14T03:33:46;3.83;;;1.73;;
5519;SDS011;2782;52.362;10.012;2023-03-14T03:34:48;3.95;;;1.55;;
5519;SDS011;2782;52.362;10.012;2023-03-14T03:35:49;4.03;;;1.23;;
5519;SDS011;2782;52.362;10.012;2023-03-14T03:36:52;3.25;;;1.40;;
5519;SDS011;2782;52.362;10.012;2023-03-14T03:37:55;2.70;;;1.40;;
5519;SDS011;2782;52.362;10.012;2023-03-14T03:38:57;3.50;;;1.30;;
5519;SDS011;2782;52.362;10.012;2023-03-14T03:39:57;2.03;;;1.00;;
5519;SDS011;2782;52.362;10.012;2023-03-14T03:41:01;3.38;;;1.52;;
5519;SDS011;2782;52.362;10.012;2023-03-14T03:42:03;3.40;;;1.67;;
5519;SDS011;2782;52.362;10.012;2023-03-14T03:43:04;3.30;;;1.40;;
5519;SDS011;2782;52.362;10.012;2023-03-14T03:44:06;1.70;;;0.83;;
5519;SDS011;2782;52.362;10.012;2023-03-14T03:45:08;2.90;;;1.50;;
5519;SDS011;2782;52.362;10.012;2023-03-14T03:46:09;2.55;;;1.20;;
5519;SDS011;2782;52.362;10.012;2023-03-14T03:47:11;3.30;;;1.45;;
5519;SDS011;2782;52.362;10.012;2023-03-14T03:48:11;5.60;;;1.00;;
5519;SDS011;2782;52.362;10.012;2023-03-14T03:49:13;3.25;;;1.25;;
5519;SDS011;2782;52.362;10.012;2023-03-14T03:50:13;4.23;;;1.63;;
5519;SDS011;2782;52.362;10.012;2023-03-14T03:51:15;2.40;;;1.40;;
5519;SDS011;2782;52.362;10.012;2023-03-14T03:52:16;4.30;;;1.43;;
5519;SDS011;2782;52.362;10.012;2023-03-14T03:53:18;4.07;;;1.10;;
5519;SDS011;2782;52.362;10.012;2023-03-14T03:54:18;3.13;;;1.20;;
5519;SDS011;2782;52.362;10.012;2023-03-14T03:55:20;1.73;;;1.05;;
5519;SDS011;2782;52.362;10.012;2023-03-14T03:56:21;2.77;;;1.20;;
5519;SDS011;2782;52.362;10.012;2023-03-14T03:57:22;1.52;;;1.25;;
5519;SDS011;2782;52.362;10.012;2023-03-14T03:58:23;2.77;;;1.47;;
5519;SDS011;2782;52.362;10.012;2023-03-14T03:59:26;4.85;;;1.60;;
5519;SDS011;2782;52.362;10.012;2023-03-14T04:00:27;2.90;;;1.10;;
5519;SDS011;2782;52.362;10.012;2023-03-14T04:01:28;2.97;;;1.42;;
5519;SDS011;2782;52.362;10.012;2023-03-14T04:02:29;1.83;;;0.90;;
5519;SDS011;2782;52.362;10.012;2023-03-14T04:03:30;3.58;;;1.58;;
5519;SDS011;2782;52.362;10.012;2023-03-14T04:04:31;1.93;;;0.87;;
5519;SDS011;2782;52.362;10.012;2023-03-14T04:05:33;1.80;;;1.02;;
5519;SDS011;2782;52.362;10.012;2023-03-14T04:06:34;2.65;;;1.17;;
5519;SDS011;2782;52.362;10.012;2023-03-14T04:07:35;2.75;;;0.95;;
5519;SDS011;2782;52.362;10.012;2023-03-14T04:08:36;2.73;;;0.90;;
5519;SDS011;2782;52.362;10.012;2023-03-14T04:09:38;2.45;;;1.35;;
5519;SDS011;2782;52.362;10.012;2023-03-14T04:10:39;2.87;;;1.40;;
5519;SDS011;2782;52.362;10.012;2023-03-14T04:11:41;4.28;;;1.40;;
5519;SDS011;2782;52.362;10.012;2023-03-14T04:12:41;1.63;;;1.20;;
5519;SDS011;2782;52.362;10.012;2023-03-14T04:13:43;2.15;;;1.05;;
5519;SDS011;2782;52.362;10.012;2023-03-14T04:14:46;1.93;;;1.10;;
5519;SDS011;2782;52.362;10.012;2023-03-14T04:15:47;5.18;;;1.00;;
5519;SDS011;2782;52.362;10.012;2023-03-14T04:16:48;4.10;;;1.13;;
5519;SDS011;2782;52.362;10.012;2023-03-14T04:17:50;2.65;;;0.93;;
5519;SDS011;2782;52.362;10.012;2023-03-14T04:18:50;2.37;;;1.20;;
5519;SDS011;2782;52.362;10.012;2023-03-14T04:19:52;2.30;;;1.13;;
5519;SDS011;2782;52.362;10.012;2023-03-14T04:20:54;2.53;;;0.70;;
5519;SDS011;2782;52.362;10.012;2023-03-14T04:21:56;1.77;;;0.70;;
5519;SDS011;2782;52.362;10.012;2023-03-14T04:22:57;1.73;;;0.90;;
5519;SDS011;2782;52.362;10.012;2023-03-14T04:23:59;3.90;;;1.38;;
5519;SDS011;2782;52.362;10.012;2023-03-14T04:24:59;2.03;;;0.70;;
5519;SDS011;2782;52.362;10.012;2023-03-14T04:26:02;2.50;;;1.10;;
5519;SDS011;2782;52.362;10.012;2023-03-14T04:27:03;2.10;;;0.80;;
5519;SDS011;2782;52.362;10.012;2023-03-14T04:28:04;1.88;;;1.02;;
5519;SDS011;2782;52.362;10.012;2023-03-14T04:29:05;2.60;;;1.00;;
5519;SDS011;2782;52.362;10.012;2023-03-14T04:30:08;2.20;;;1.00;;
5519;SDS011;2782;52.362;10.012;2023-03-14T04:31:10;1.55;;;0.70;;
5519;SDS011;2782;52.362;10.012;2023-03-14T04:32:12;2.33;;;1.10;;
5519;SDS011;2782;52.362;10.012;2023-03-14T04:33:14;3.08;;;0.70;;
5519;SDS011;2782;52.362;10.012;2023-03-14T04:34:17;2.35;;;0.90;;
5519;SDS011;2782;52.362;10.012;2023-03-14T04:35:18;1.00;;;0.50;;
5519;SDS011;2782;52.362;10.012;2023-03-14T04:36:19;1.90;;;0.90;;
5519;SDS011;2782;52.362;10.012;2023-03-14T04:37:20;1.90;;;1.00;;
5519;SDS011;2782;52.362;10.012;2023-03-14T04:38:21;3.50;;;0.87;;
5519;SDS011;2782;52.362;10.012;2023-03-14T04:39:23;1.95;;;0.85;;
5519;SDS011;2782;52.362;10.012;2023-03-14T04:40:23;1.53;;;0.60;;
5519;SDS011;2782;52.362;10.012;2023-03-14T04:41:25;2.25;;;0.65;;
5519;SDS011;2782;52.362;10.012;2023-03-14T04:42:25;2.30;;;1.40;;
5519;SDS011;2782;52.362;10.012;2023-03-14T04:43:27;3.67;;;0.93;;
5519;SDS011;2782;52.362;10.012;2023-03-14T04:44:28;3.90;;;1.17;;
5519;SDS011;2782;52.362;10.012;2023-03-14T04:45:31;1.88;;;0.95;;
5519;SDS011;2782;52.362;10.012;2023-03-14T04:46:31;1.67;;;0.60;;
5519;SDS011;2782;52.362;10.012;2023-03-14T04:47:33;2.60;;;0.70;;
5519;SDS011;2782;52.362;10.012;2023-03-14T04:48:34;3.33;;;1.00;;
5519;SDS011;2782;52.362;10.012;2023-03-14T04:49:37;2.00;;;0.70;;
5519;SDS011;2782;52.362;10.012;2023-03-14T04:50:38;2.70;;;0.70;;
5519;SDS011;2782;52.362;10.012;2023-03-14T04:51:39;1.23;;;0.60;;
5519;SDS011;2782;52.362;10.012;2023-03-14T04:52:40;0.87;;;0.80;;
5519;SDS011;2782;52.362;10.012;2023-03-14T04:53:42;1.60;;;0.70;;
5519;SDS011;2782;52.362;10.012;2023-03-14T04:54:42;1.00;;;0.50;;
5519;SDS011;2782;52.362;10.012;2023-03-14T04:55:47;2.30;;;0.80;;
5519;SDS011;2782;52.362;10.012;2023-03-14T04:56:48;1.58;;;0.65;;
5519;SDS011;2782;52.362;10.012;2023-03-14T04:57:49;2.38;;;0.70;;
5519;SDS011;2782;52.362;10.012;2023-03-14T04:58:50;0.90;;;0.57;;
5519;SDS011;2782;52.362;10.012;2023-03-14T04:59:52;1.10;;;0.52;;
5519;SDS011;2782;52.362;10.012;2023-03-14T05:00:53;1.83;;;0.60;;
5519;SDS011;2782;52.362;10.012;2023-03-14T05:01:55;0.82;;;0.50;;
5519;SDS011;2782;52.362;10.012;2023-03-14T05:02:56;1.67;;;0.80;;
5519;SDS011;2782;52.362;10.012;2023-03-14T05:03:57;1.67;;;0.63;;
5519;SDS011;2782;52.362;10.012;2023-03-14T05:04:58;1.57;;;0.70;;
5519;SDS011;2782;52.362;10.012;2023-03-14T05:06:00;1.67;;;0.60;;
5519;SDS011;2782;52.362;10.012;2023-03-14T05:07:00;1.37;;;0.60;;
5519;SDS011;2782;52.362;10.012;2023-03-14T05:08:02;1.98;;;0.47;;
5519;SDS011;2782;52.362;10.012;2023-03-14T05:09:03;1.60;;;0.70;;
5519;SDS011;2782;52.362;10.012;2023-03-14T05:10:06;0.90;;;0.50;;
5519;SDS011;2782;52.362;10.012;2023-03-14T05:11:09;1.25;;;0.68;;
5519;SDS011;2782;52.362;10.012;2023-03-14T05:12:12;1.70;;;0.73;;
5519;SDS011;2782;52.362;10.012;2023-03-14T05:13:12;1.20;;;0.47;;
5519;SDS011;2782;52.362;10.012;2023-03-14T05:14:14;0.82;;;0.30;;
5519;SDS011;2782;52.362;10.012;2023-03-14T05:15:14;1.77;;;0.60;;
5519;SDS011;2782;52.362;10.012;2023-03-14T05:16:17;3.20;;;0.60;;
5519;SDS011;2782;52.362;10.012;2023-03-14T05:17:18;1.13;;;0.50;;
5519;SDS011;2782;52.362;10.012;2023-03-14T05:18:20;1.98;;;0.60;;
5519;SDS011;2782;52.362;10.012;2023-03-14T05:19:20;2.10;;;0.70;;
5519;SDS011;2782;52.362;10.012;2023-03-14T05:20:22;1.65;;;0.70;;
5519;SDS011;2782;52.362;10.012;2023-03-14T05:21:23;1.07;;;0.43;;
5519;SDS011;2782;52.362;10.012;2023-03-14T05:22:24;2.05;;;0.50;;
5519;SDS011;2782;52.362;10.012;2023-03-14T05:23:25;1.83;;;0.50;;
5519;SDS011;2782;52.362;10.012;2023-03-14T05:24:27;3.03;;;0.60;;
5519;SDS011;2782;52.362;10.012;2023-03-14T05:25:27;1.43;;;0.40;;
5519;SDS011;2782;52.362;10.012;2023-03-14T05:26:29;1.48;;;0.50;;
5519;SDS011;2782;52.362;10.012;2023-03-14T05:27:30;1.07;;;0.40;;
5519;SDS011;2782;52.362;10.012;2023-03-14T05:28:31;1.92;;;0.60;;
5519;SDS011;2782;52.362;10.012;2023-03-14T05:29:32;1.40;;;0.57;;
5519;SDS011;2782;52.362;10.012;2023-03-14T05:30:33;2.05;;;0.40;;
5519;SDS011;2782;52.362;10.012;2023-03-14T05:31:35;0.93;;;0.60;;
5519;SDS011;2782;52.362;10.012;2023-03-14T05:32:37;4.25;;;0.50;;
5519;SDS011;2782;52.362;10.012;2023-03-14T05:33:38;1.37;;;0.50;;
5519;SDS011;2782;52.362;10.012;2023-03-14T05:34:39;1.08;;;0.52;;
5519;SDS011;2782;52.362;10.012;2023-03-14T05:35:40;0.97;;;0.37;;
5519;SDS011;2782;52.362;10.012;2023-03-14T05:36:43;3.35;;;0.68;;
5519;SDS011;2782;52.362;10.012;2023-03-14T05:37:43;2.00;;;0.60;;
5519;SDS011;2782;52.362;10.012;2023-03-14T05:38:45;1.40;;;0.50;;
5519;SDS011;2782;52.362;10.012;2023-03-14T05:39:46;2.60;;;0.37;;
5519;SDS011;2782;52.362;10.012;2023-03-14T05:40:47;1.00;;;0.30;;
5519;SDS011;2782;52.362;10.012;2023-03-14T05:41:48;1.20;;;0.40;;
5519;SDS011;2782;52.362;10.012;2023-03-14T05:42:50;1.23;;;0.60;;
5519;SDS011;2782;52.362;10.012;2023-03-14T05:43:52;1.55;;;0.40;;
5519;SDS011;2782;52.362;10.012;2023-03-14T05:44:53;0.95;;;0.40;;
5519;SDS011;2782;52.362;10.012;2023-03-14T05:45:54;0.90;;;0.60;;
5519;SDS011;2782;52.362;10.012;2023-03-14T05:46:57;0.70;;;0.40;;
5519;SDS011;2782;52.362;10.012;2023-03-14T05:47:57;1.00;;;0.30;;
5519;SDS011;2782;52.362;10.012;2023-03-14T05:48:59;1.23;;;0.35;;
5519;SDS011;2782;52.362;10.012;2023-03-14T05:50:00;1.07;;;0.40;;
5519;SDS011;2782;52.362;10.012;2023-03-14T05:51:01;1.02;;;0.63;;
5519;SDS011;2782;52.362;10.012;2023-03-14T05:52:02;1.07;;;0.43;;
5519;SDS011;2782;52.362;10.012;2023-03-14T05:53:04;0.70;;;0.50;;
5519;SDS011;2782;52.362;10.012;2023-03-14T05:54:05;1.07;;;0.40;;
5519;SDS011;2782;52.362;10.012;2023-03-14T05:55:07;0.63;;;0.30;;
5519;SDS011;2782;52.362;10.012;2023-03-14T05:56:08;1.25;;;0.40;;
5519;SDS011;2782;52.362;10.012;2023-03-14T05:57:10;0.90;;;0.40;;
5519;SDS011;2782;52.362;10.012;2023-03-14T05:58:10;1.10;;;0.40;;
5519;SDS011;2782;52.362;10.012;2023-03-14T05:59:12;1.23;;;0.50;;
5519;SDS011;2782;52.362;10.012;2023-03-14T06:00:14;1.40;;;0.40;;
5519;SDS011;2782;52.362;10.012;2023-03-14T06:01:16;0.93;;;0.30;;
5519;SDS011;2782;52.362;10.012;2023-03-14T06:02:18;1.07;;;0.30;;
5519;SDS011;2782;52.362;10.012;2023-03-14T06:03:19;2.75;;;0.52;;
5519;SDS011;2782;52.362;10.012;2023-03-14T06:04:20;1.37;;;0.60;;
5519;SDS011;2782;52.362;10.012;2023-03-14T06:05:21;1.65;;;0.40;;
5519;SDS011;2782;52.362;10.012;2023-03-14T06:06:22;1.47;;;0.30;;
5519;SDS011;2782;52.362;10.012;2023-03-14T06:07:24;0.82;;;0.38;;
5519;SDS011;2782;52.362;10.012;2023-03-14T06:08:24;1.53;;;0.40;;
5519;SDS011;2782;52.362;10.012;2023-03-14T06:09:26;0.88;;;0.20;;
5519;SDS011;2782;52.362;10.012;2023-03-14T06:10:26;3.70;;;0.37;;
5519;SDS011;2782;52.362;10.012;2023-03-14T06:11:28;1.80;;;0.40;;
5519;SDS011;2782;52.362;10.012;2023-03-14T06:12:29;1.27;;;0.40;;
5519;SDS011;2782;52.362;10.012;2023-03-14T06:13:30;0.70;;;0.20;;
5519;SDS011;2782;52.362;10.012;2023-03-14T06:14:31;1.10;;;0.37;;
5519;SDS011;2782;52.362;10.012;2023-03-14T06:15:33;0.85;;;0.30;;
5519;SDS011;2782;52.362;10.012;2023-03-14T06:16:35;1.17;;;0.57;;
5519;SDS011;2782;52.362;10.012;2023-03-14T06:17:39;0.50;;;0.20;;
5519;SDS011;2782;52.362;10.012;2023-03-14T06:18:39;1.33;;;0.30;;
5519;SDS011;2782;52.362;10.012;2023-03-14T06:19:41;1.00;;;0.45;;
5519;SDS011;2782;52.362;10.012;2023-03-14T06:20:42;1.27;;;0.20;;
5519;SDS011;2782;52.362;10.012;2023-03-14T06:21:45;1.35;;;0.30;;
5519;SDS011;2782;52.362;10.012;2023-03-14T06:22:45;1.53;;;0.30;;
5519;SDS011;2782;52.362;10.012;2023-03-14T06:23:47;1.38;;;0.30;;
5519;SDS011;2782;52.362;10.012;2023-03-14T06:24:47;0.60;;;0.30;;